sensor_id;sensor_type;location;lat;lon;timestamp;temperature;humidity
7216;DHT22;3649;48.798;9.798;2023-12-04T00:00:11;2.90;99.90
7216;DHT22;3649;48.798;9.798;2023-12-04T00:02:38;1.40;99.70
7216;DHT22;3649;48.798;9.798;2023-12-04T00:05:06;1.30;99.90
7216;DHT22;3649;48.798;9.798;2023-12-04T00:07:33;1.40;99.90
7216;DHT22;3649;48.798;9.798;2023-12-04T00:10:00;1.50;99.90
7216;DHT22;3649;48.798;9.798;2023-12-04T00:12:27;1.60;99.90
7216;DHT22;3649;48.798;9.798;2023-12-04T00:14:54;1.60;99.50
7216;DHT22;3649;48.798;9.798;2023-12-04T00:17:20;1.60;99.80
7216;DHT22;3649;48.798;9.798;2023-12-04T00:19:48;1.50;99.90
7216;DHT22;3649;48.798;9.798;2023-12-04T00:22:15;1.50;99.90
7216;DHT22;3649;48.798;9.798;2023-12-04T00:24:42;1.60;99.90
7216;DHT22;3649;48.798;9.798;2023-12-04T00:27:10;1.60;99.90
7216;DHT22;3649;48.798;9.798;2023-12-04T00:29:36;1.50;99.70
7216;DHT22;3649;48.798;9.798;2023-12-04T00:32:04;1.60;99.80
7216;DHT22;3649;48.798;9.798;2023-12-04T00:34:31;1.50;99.80
7216;DHT22;3649;48.798;9.798;2023-12-04T00:36:58;1.60;99.70
7216;DHT22;3649;48.798;9.798;2023-12-04T00:39:25;1.80;99.80
7216;DHT22;3649;48.798;9.798;2023-12-04T00:41:51;1.60;99.60
7216;DHT22;3649;48.798;9.798;2023-12-04T00:44:18;1.50;99.70
7216;DHT22;3649;48.798;9.798;2023-12-04T00:46:45;1.40;99.90
7216;DHT22;3649;48.798;9.798;2023-12-04T00:49:12;1.50;99.70
7216;DHT22;3649;48.798;9.798;2023-12-04T00:51:39;1.50;99.70
7216;DHT22;3649;48.798;9.798;2023-12-04T00:54:06;1.70;99.70
7216;DHT22;3649;48.798;9.798;2023-12-04T00:56:33;1.60;99.60
7216;DHT22;3649;48.798;9.798;2023-12-04T00:59:00;1.50;99.50
7216;DHT22;3649;48.798;9.798;2023-12-04T01:01:27;0.30;99.10
7216;DHT22;3649;48.798;9.798;2023-12-04T01:03:53;1.40;99.80
7216;DHT22;3649;48.798;9.798;2023-12-04T01:06:22;1.40;99.80
7216;DHT22;3649;48.798;9.798;2023-12-04T01:08:53;1.40;99.90
7216;DHT22;3649;48.798;9.798;2023-12-04T01:11:20;1.50;99.80
7216;DHT22;3649;48.798;9.798;2023-12-04T01:13:48;1.50;99.80
7216;DHT22;3649;48.798;9.798;2023-12-04T01:16:15;1.50;99.60
7216;DHT22;3649;48.798;9.798;2023-12-04T01:18:43;1.40;99.90
7216;DHT22;3649;48.798;9.798;2023-12-04T01:21:10;1.60;99.80
7216;DHT22;3649;48.798;9.798;2023-12-04T01:23:37;1.50;99.70
7216;DHT22;3649;48.798;9.798;2023-12-04T01:26:04;1.60;99.80
7216;DHT22;3649;48.798;9.798;2023-12-04T01:28:31;1.60;99.80
7216;DHT22;3649;48.798;9.798;2023-12-04T01:30:58;1.50;99.60
7216;DHT22;3649;48.798;9.798;2023-12-04T01:33:25;1.60;99.60
7216;DHT22;3649;48.798;9.798;2023-12-04T01:35:53;1.60;99.60
7216;DHT22;3649;48.798;9.798;2023-12-04T01:38:19;1.60;99.70
7216;DHT22;3649;48.798;9.798;2023-12-04T01:40:46;1.60;99.60
7216;DHT22;3649;48.798;9.798;2023-12-04T01:43:13;1.60;99.60
7216;DHT22;3649;48.798;9.798;2023-12-04T01:45:41;1.60;99.50
7216;DHT22;3649;48.798;9.798;2023-12-04T01:48:08;1.60;99.40
7216;DHT22;3649;48.798;9.798;2023-12-04T01:50:36;1.50;99.50
7216;DHT22;3649;48.798;9.798;2023-12-04T01:53:04;1.60;99.50
7216;DHT22;3649;48.798;9.798;2023-12-04T01:55:33;1.70;99.40
7216;DHT22;3649;48.798;9.798;2023-12-04T01:58:02;1.70;99.30
7216;DHT22;3649;48.798;9.798;2023-12-04T02:00:30;1.70;99.20
7216;DHT22;3649;48.798;9.798;2023-12-04T02:02:58;1.70;99.40
7216;DHT22;3649;48.798;9.798;2023-12-04T02:05:27;1.60;99.40
7216;DHT22;3649;48.798;9.798;2023-12-04T02:07:56;1.60;99.50
7216;DHT22;3649;48.798;9.798;2023-12-04T02:10:23;1.60;99.40
7216;DHT22;3649;48.798;9.798;2023-12-04T02:12:50;1.70;99.40
7216;DHT22;3649;48.798;9.798;2023-12-04T02:15:17;1.60;99.30
7216;DHT22;3649;48.798;9.798;2023-12-04T02:17:44;1.60;99.40
7216;DHT22;3649;48.798;9.798;2023-12-04T02:20:16;1.60;99.30
7216;DHT22;3649;48.798;9.798;2023-12-04T02:22:44;1.70;99.30
7216;DHT22;3649;48.798;9.798;2023-12-04T02:28:10;1.60;99.30
7216;DHT22;3649;48.798;9.798;2023-12-04T02:30:40;1.50;99.20
7216;DHT22;3649;48.798;9.798;2023-12-04T02:33:08;1.50;99.20
7216;DHT22;3649;48.798;9.798;2023-12-04T02:35:39;1.40;99.20
7216;DHT22;3649;48.798;9.798;2023-12-04T02:38:07;1.50;99.40
7216;DHT22;3649;48.798;9.798;2023-12-04T02:40:35;1.50;99.40
7216;DHT22;3649;48.798;9.798;2023-12-04T02:43:02;1.60;99.30
7216;DHT22;3649;48.798;9.798;2023-12-04T02:45:29;1.50;99.40
7216;DHT22;3649;48.798;9.798;2023-12-04T02:47:56;1.50;99.70
7216;DHT22;3649;48.798;9.798;2023-12-04T02:50:23;1.60;99.70
7216;DHT22;3649;48.798;9.798;2023-12-04T02:52:50;1.60;99.70
7216;DHT22;3649;48.798;9.798;2023-12-04T02:55:17;1.60;99.50
7216;DHT22;3649;48.798;9.798;2023-12-04T02:57:44;1.70;99.50
7216;DHT22;3649;48.798;9.798;2023-12-04T03:00:11;1.60;99.40
7216;DHT22;3649;48.798;9.798;2023-12-04T03:02:38;1.70;99.40
7216;DHT22;3649;48.798;9.798;2023-12-04T03:05:05;1.60;99.20
7216;DHT22;3649;48.798;9.798;2023-12-04T03:07:32;1.70;99.30
7216;DHT22;3649;48.798;9.798;2023-12-04T03:09:59;1.70;99.30
7216;DHT22;3649;48.798;9.798;2023-12-04T03:12:27;1.60;99.30
7216;DHT22;3649;48.798;9.798;2023-12-04T03:14:54;1.70;99.40
7216;DHT22;3649;48.798;9.798;2023-12-04T03:17:21;1.70;99.40
7216;DHT22;3649;48.798;9.798;2023-12-04T03:19:48;1.80;99.30
7216;DHT22;3649;48.798;9.798;2023-12-04T03:22:15;1.70;99.30
7216;DHT22;3649;48.798;9.798;2023-12-04T03:24:42;1.60;99.40
7216;DHT22;3649;48.798;9.798;2023-12-04T03:27:09;1.70;99.40
7216;DHT22;3649;48.798;9.798;2023-12-04T03:29:36;1.70;99.40
7216;DHT22;3649;48.798;9.798;2023-12-04T03:32:04;1.70;99.50
7216;DHT22;3649;48.798;9.798;2023-12-04T03:34:31;1.80;99.30
7216;DHT22;3649;48.798;9.798;2023-12-04T03:36:58;1.70;99.30
7216;DHT22;3649;48.798;9.798;2023-12-04T03:39:24;1.70;99.40
7216;DHT22;3649;48.798;9.798;2023-12-04T03:41:52;1.70;99.50
7216;DHT22;3649;48.798;9.798;2023-12-04T03:44:18;1.70;99.60
7216;DHT22;3649;48.798;9.798;2023-12-04T03:46:45;1.60;99.50
7216;DHT22;3649;48.798;9.798;2023-12-04T03:49:12;1.60;99.50
7216;DHT22;3649;48.798;9.798;2023-12-04T03:51:39;1.60;99.70
7216;DHT22;3649;48.798;9.798;2023-12-04T03:54:06;1.70;99.60
7216;DHT22;3649;48.798;9.798;2023-12-04T03:56:33;1.70;99.30
7216;DHT22;3649;48.798;9.798;2023-12-04T03:58:59;1.70;99.00
7216;DHT22;3649;48.798;9.798;2023-12-04T04:01:26;1.60;99.10
7216;DHT22;3649;48.798;9.798;2023-12-04T04:03:53;1.50;99.40
7216;DHT22;3649;48.798;9.798;2023-12-04T04:06:20;1.50;99.50
7216;DHT22;3649;48.798;9.798;2023-12-04T04:08:47;1.40;99.40
7216;DHT22;3649;48.798;9.798;2023-12-04T04:11:14;1.40;99.50
7216;DHT22;3649;48.798;9.798;2023-12-04T04:13:41;1.20;99.40
7216;DHT22;3649;48.798;9.798;2023-12-04T04:16:12;1.20;99.60
7216;DHT22;3649;48.798;9.798;2023-12-04T04:18:39;1.20;99.60
7216;DHT22;3649;48.798;9.798;2023-12-04T04:21:06;1.20;99.50
7216;DHT22;3649;48.798;9.798;2023-12-04T04:23:33;1.30;99.70
7216;DHT22;3649;48.798;9.798;2023-12-04T04:26:00;1.30;99.70
7216;DHT22;3649;48.798;9.798;2023-12-04T04:28:26;1.40;99.60
7216;DHT22;3649;48.798;9.798;2023-12-04T04:30:53;1.30;99.70
7216;DHT22;3649;48.798;9.798;2023-12-04T04:33:20;1.50;99.70
7216;DHT22;3649;48.798;9.798;2023-12-04T04:35:47;1.60;99.60
7216;DHT22;3649;48.798;9.798;2023-12-04T04:38:14;1.60;99.60
7216;DHT22;3649;48.798;9.798;2023-12-04T04:40:41;1.50;99.40
7216;DHT22;3649;48.798;9.798;2023-12-04T04:43:10;1.60;99.50
7216;DHT22;3649;48.798;9.798;2023-12-04T04:45:38;1.60;99.40
7216;DHT22;3649;48.798;9.798;2023-12-04T04:48:05;1.50;99.40
7216;DHT22;3649;48.798;9.798;2023-12-04T04:50:32;1.60;99.10
7216;DHT22;3649;48.798;9.798;2023-12-04T04:52:59;1.60;99.10
7216;DHT22;3649;48.798;9.798;2023-12-04T04:55:26;1.60;99.10
7216;DHT22;3649;48.798;9.798;2023-12-04T04:58:13;1.60;99.20
7216;DHT22;3649;48.798;9.798;2023-12-04T05:00:40;1.60;99.40
7216;DHT22;3649;48.798;9.798;2023-12-04T05:03:07;1.60;99.30
7216;DHT22;3649;48.798;9.798;2023-12-04T05:05:33;1.60;99.30
7216;DHT22;3649;48.798;9.798;2023-12-04T05:08:00;1.60;99.20
7216;DHT22;3649;48.798;9.798;2023-12-04T05:10:27;1.60;99.30
7216;DHT22;3649;48.798;9.798;2023-12-04T05:12:54;1.50;99.30
7216;DHT22;3649;48.798;9.798;2023-12-04T05:15:21;1.40;99.30
7216;DHT22;3649;48.798;9.798;2023-12-04T05:17:48;1.40;99.50
7216;DHT22;3649;48.798;9.798;2023-12-04T05:20:14;1.40;99.50
7216;DHT22;3649;48.798;9.798;2023-12-04T05:22:41;1.30;99.80
7216;DHT22;3649;48.798;9.798;2023-12-04T05:25:08;1.30;99.60
7216;DHT22;3649;48.798;9.798;2023-12-04T05:27:35;1.30;99.60
7216;DHT22;3649;48.798;9.798;2023-12-04T05:30:02;1.30;99.80
7216;DHT22;3649;48.798;9.798;2023-12-04T05:32:29;1.30;99.70
7216;DHT22;3649;48.798;9.798;2023-12-04T05:34:56;1.40;99.70
7216;DHT22;3649;48.798;9.798;2023-12-04T05:37:23;1.40;99.60
7216;DHT22;3649;48.798;9.798;2023-12-04T05:39:50;1.40;99.70
7216;DHT22;3649;48.798;9.798;2023-12-04T05:42:17;1.30;99.40
7216;DHT22;3649;48.798;9.798;2023-12-04T05:44:43;1.30;99.90
7216;DHT22;3649;48.798;9.798;2023-12-04T05:47:11;1.30;99.90
7216;DHT22;3649;48.798;9.798;2023-12-04T05:49:37;1.40;99.90
7216;DHT22;3649;48.798;9.798;2023-12-04T05:52:04;1.50;99.90
7216;DHT22;3649;48.798;9.798;2023-12-04T05:54:31;1.50;99.90
7216;DHT22;3649;48.798;9.798;2023-12-04T05:56:58;1.50;99.90
7216;DHT22;3649;48.798;9.798;2023-12-04T05:59:25;1.50;99.90
7216;DHT22;3649;48.798;9.798;2023-12-04T06:01:52;1.50;99.90
7216;DHT22;3649;48.798;9.798;2023-12-04T06:04:19;1.60;99.90
7216;DHT22;3649;48.798;9.798;2023-12-04T06:06:46;1.50;99.90
7216;DHT22;3649;48.798;9.798;2023-12-04T06:09:13;1.50;99.90
7216;DHT22;3649;48.798;9.798;2023-12-04T06:11:42;1.50;99.90
7216;DHT22;3649;48.798;9.798;2023-12-04T06:14:12;1.40;99.90
7216;DHT22;3649;48.798;9.798;2023-12-04T06:16:39;1.50;99.90
7216;DHT22;3649;48.798;9.798;2023-12-04T06:19:06;1.50;99.90
7216;DHT22;3649;48.798;9.798;2023-12-04T06:21:33;1.60;99.90
7216;DHT22;3649;48.798;9.798;2023-12-04T06:24:01;1.60;99.90
7216;DHT22;3649;48.798;9.798;2023-12-04T06:26:31;1.60;99.90
7216;DHT22;3649;48.798;9.798;2023-12-04T06:29:00;1.70;99.90
7216;DHT22;3649;48.798;9.798;2023-12-04T06:31:27;1.60;99.90
7216;DHT22;3649;48.798;9.798;2023-12-04T06:33:54;1.60;99.90
7216;DHT22;3649;48.798;9.798;2023-12-04T06:36:21;1.70;99.90
7216;DHT22;3649;48.798;9.798;2023-12-04T06:38:51;1.70;99.90
7216;DHT22;3649;48.798;9.798;2023-12-04T06:41:19;1.70;99.90
7216;DHT22;3649;48.798;9.798;2023-12-04T06:43:48;1.70;99.90
7216;DHT22;3649;48.798;9.798;2023-12-04T06:46:21;1.70;99.90
7216;DHT22;3649;48.798;9.798;2023-12-04T06:48:52;1.70;99.90
7216;DHT22;3649;48.798;9.798;2023-12-04T06:51:20;1.60;99.90
7216;DHT22;3649;48.798;9.798;2023-12-04T06:53:47;1.60;99.90
7216;DHT22;3649;48.798;9.798;2023-12-04T06:56:15;1.60;99.90
7216;DHT22;3649;48.798;9.798;2023-12-04T06:58:45;1.80;99.90
7216;DHT22;3649;48.798;9.798;2023-12-04T07:01:12;1.50;99.90
7216;DHT22;3649;48.798;9.798;2023-12-04T07:03:39;1.50;99.90
7216;DHT22;3649;48.798;9.798;2023-12-04T07:06:06;1.60;99.90
7216;DHT22;3649;48.798;9.798;2023-12-04T07:08:36;1.50;99.90
7216;DHT22;3649;48.798;9.798;2023-12-04T07:11:03;1.60;99.90
7216;DHT22;3649;48.798;9.798;2023-12-04T07:13:31;1.60;99.90
7216;DHT22;3649;48.798;9.798;2023-12-04T07:15:58;1.70;99.90
7216;DHT22;3649;48.798;9.798;2023-12-04T07:18:26;1.70;99.70
7216;DHT22;3649;48.798;9.798;2023-12-04T07:20:53;1.70;99.70
7216;DHT22;3649;48.798;9.798;2023-12-04T07:23:20;1.70;99.90
7216;DHT22;3649;48.798;9.798;2023-12-04T07:25:49;1.80;99.90
7216;DHT22;3649;48.798;9.798;2023-12-04T07:28:18;1.90;99.90
7216;DHT22;3649;48.798;9.798;2023-12-04T07:30:46;2.00;99.90
7216;DHT22;3649;48.798;9.798;2023-12-04T07:33:13;2.00;99.90
7216;DHT22;3649;48.798;9.798;2023-12-04T07:35:40;2.20;99.80
7216;DHT22;3649;48.798;9.798;2023-12-04T07:38:07;2.10;99.90
7216;DHT22;3649;48.798;9.798;2023-12-04T07:40:34;2.10;99.90
7216;DHT22;3649;48.798;9.798;2023-12-04T07:43:01;2.20;99.80
7216;DHT22;3649;48.798;9.798;2023-12-04T07:45:29;2.10;99.90
7216;DHT22;3649;48.798;9.798;2023-12-04T07:47:56;2.20;99.90
7216;DHT22;3649;48.798;9.798;2023-12-04T07:50:23;2.20;99.90
7216;DHT22;3649;48.798;9.798;2023-12-04T07:52:51;2.30;99.90
7216;DHT22;3649;48.798;9.798;2023-12-04T07:55:17;2.20;99.90
7216;DHT22;3649;48.798;9.798;2023-12-04T07:57:44;2.20;99.90
7216;DHT22;3649;48.798;9.798;2023-12-04T08:00:12;2.20;99.90
7216;DHT22;3649;48.798;9.798;2023-12-04T08:02:39;2.20;99.90
7216;DHT22;3649;48.798;9.798;2023-12-04T08:05:06;2.10;99.90
7216;DHT22;3649;48.798;9.798;2023-12-04T08:07:35;2.10;99.90
7216;DHT22;3649;48.798;9.798;2023-12-04T08:10:03;2.10;99.90
7216;DHT22;3649;48.798;9.798;2023-12-04T08:12:30;2.20;99.90
7216;DHT22;3649;48.798;9.798;2023-12-04T08:14:57;2.10;99.90
7216;DHT22;3649;48.798;9.798;2023-12-04T08:17:24;2.10;99.80
7216;DHT22;3649;48.798;9.798;2023-12-04T08:19:51;2.10;99.60
7216;DHT22;3649;48.798;9.798;2023-12-04T08:22:19;2.10;99.60
7216;DHT22;3649;48.798;9.798;2023-12-04T08:24:46;2.10;99.80
7216;DHT22;3649;48.798;9.798;2023-12-04T08:27:13;2.20;99.90
7216;DHT22;3649;48.798;9.798;2023-12-04T08:29:40;2.20;99.90
7216;DHT22;3649;48.798;9.798;2023-12-04T08:32:07;2.30;99.90
7216;DHT22;3649;48.798;9.798;2023-12-04T08:34:34;2.10;99.90
7216;DHT22;3649;48.798;9.798;2023-12-04T08:37:03;2.10;99.70
7216;DHT22;3649;48.798;9.798;2023-12-04T08:39:30;2.00;99.70
7216;DHT22;3649;48.798;9.798;2023-12-04T08:41:57;1.90;99.50
7216;DHT22;3649;48.798;9.798;2023-12-04T08:44:31;1.80;99.70
7216;DHT22;3649;48.798;9.798;2023-12-04T08:46:59;1.90;99.80
7216;DHT22;3649;48.798;9.798;2023-12-04T08:49:28;1.80;99.70
7216;DHT22;3649;48.798;9.798;2023-12-04T08:52:08;1.90;99.70
7216;DHT22;3649;48.798;9.798;2023-12-04T08:54:39;1.90;99.90
7216;DHT22;3649;48.798;9.798;2023-12-04T08:57:07;1.90;99.90
7216;DHT22;3649;48.798;9.798;2023-12-04T08:59:34;1.90;99.70
7216;DHT22;3649;48.798;9.798;2023-12-04T09:02:02;1.90;99.90
7216;DHT22;3649;48.798;9.798;2023-12-04T09:04:33;1.90;99.90
7216;DHT22;3649;48.798;9.798;2023-12-04T09:07:00;1.90;99.90
7216;DHT22;3649;48.798;9.798;2023-12-04T09:09:47;1.90;99.90
7216;DHT22;3649;48.798;9.798;2023-12-04T09:12:14;1.70;99.90
7216;DHT22;3649;48.798;9.798;2023-12-04T09:14:41;1.90;99.90
7216;DHT22;3649;48.798;9.798;2023-12-04T09:17:08;2.10;99.90
7216;DHT22;3649;48.798;9.798;2023-12-04T09:19:35;2.30;99.60
7216;DHT22;3649;48.798;9.798;2023-12-04T09:22:03;2.40;99.40
7216;DHT22;3649;48.798;9.798;2023-12-04T09:24:43;2.90;99.60
7216;DHT22;3649;48.798;9.798;2023-12-04T09:27:11;2.40;99.60
7216;DHT22;3649;48.798;9.798;2023-12-04T09:29:38;2.40;99.80
7216;DHT22;3649;48.798;9.798;2023-12-04T09:32:05;2.60;99.60
7216;DHT22;3649;48.798;9.798;2023-12-04T09:34:32;2.60;99.60
7216;DHT22;3649;48.798;9.798;2023-12-04T09:36:59;2.70;99.50
7216;DHT22;3649;48.798;9.798;2023-12-04T09:39:36;2.70;99.30
7216;DHT22;3649;48.798;9.798;2023-12-04T09:42:03;2.70;99.30
7216;DHT22;3649;48.798;9.798;2023-12-04T09:44:32;2.70;99.00
7216;DHT22;3649;48.798;9.798;2023-12-04T09:47:01;2.60;99.10
7216;DHT22;3649;48.798;9.798;2023-12-04T09:49:30;2.70;99.30
7216;DHT22;3649;48.798;9.798;2023-12-04T09:51:58;2.70;99.30
7216;DHT22;3649;48.798;9.798;2023-12-04T09:54:26;2.80;99.20
7216;DHT22;3649;48.798;9.798;2023-12-04T09:56:54;2.80;99.30
7216;DHT22;3649;48.798;9.798;2023-12-04T09:59:24;2.80;99.60
7216;DHT22;3649;48.798;9.798;2023-12-04T10:01:52;2.80;99.80
7216;DHT22;3649;48.798;9.798;2023-12-04T10:04:20;3.00;99.60
7216;DHT22;3649;48.798;9.798;2023-12-04T10:06:50;3.10;99.30
7216;DHT22;3649;48.798;9.798;2023-12-04T10:09:17;3.10;99.30
7216;DHT22;3649;48.798;9.798;2023-12-04T10:11:45;3.10;99.40
7216;DHT22;3649;48.798;9.798;2023-12-04T10:14:17;3.00;99.50
7216;DHT22;3649;48.798;9.798;2023-12-04T10:16:44;3.10;99.60
7216;DHT22;3649;48.798;9.798;2023-12-04T10:19:23;3.10;99.80
7216;DHT22;3649;48.798;9.798;2023-12-04T10:21:55;4.30;99.90
7216;DHT22;3649;48.798;9.798;2023-12-04T10:26:57;3.20;99.90
7216;DHT22;3649;48.798;9.798;2023-12-04T10:29:27;3.20;99.90
7216;DHT22;3649;48.798;9.798;2023-12-04T10:31:54;3.30;99.90
7216;DHT22;3649;48.798;9.798;2023-12-04T10:34:22;3.30;99.90
7216;DHT22;3649;48.798;9.798;2023-12-04T10:36:53;3.40;99.90
7216;DHT22;3649;48.798;9.798;2023-12-04T10:39:20;3.30;99.90
7216;DHT22;3649;48.798;9.798;2023-12-04T10:41:59;3.30;99.90
7216;DHT22;3649;48.798;9.798;2023-12-04T10:44:26;3.50;99.90
7216;DHT22;3649;48.798;9.798;2023-12-04T10:46:55;3.50;99.90
7216;DHT22;3649;48.798;9.798;2023-12-04T10:49:27;3.70;99.90
7216;DHT22;3649;48.798;9.798;2023-12-04T10:51:58;3.50;99.90
7216;DHT22;3649;48.798;9.798;2023-12-04T10:54:27;3.50;99.90
7216;DHT22;3649;48.798;9.798;2023-12-04T10:57:00;3.60;99.90
7216;DHT22;3649;48.798;9.798;2023-12-04T10:59:35;3.60;99.90
7216;DHT22;3649;48.798;9.798;2023-12-04T11:02:05;3.70;99.90
7216;DHT22;3649;48.798;9.798;2023-12-04T11:04:36;3.80;99.90
7216;DHT22;3649;48.798;9.798;2023-12-04T11:07:03;3.80;99.90
7216;DHT22;3649;48.798;9.798;2023-12-04T11:09:35;3.70;99.90
7216;DHT22;3649;48.798;9.798;2023-12-04T11:12:06;3.80;99.90
7216;DHT22;3649;48.798;9.798;2023-12-04T11:14:42;3.90;99.90
7216;DHT22;3649;48.798;9.798;2023-12-04T11:17:13;4.00;99.90
7216;DHT22;3649;48.798;9.798;2023-12-04T11:19:59;3.90;99.90
7216;DHT22;3649;48.798;9.798;2023-12-04T11:22:28;3.90;99.90
7216;DHT22;3649;48.798;9.798;2023-12-04T11:24:57;3.90;99.90
7216;DHT22;3649;48.798;9.798;2023-12-04T11:27:24;3.90;99.90
7216;DHT22;3649;48.798;9.798;2023-12-04T11:29:51;4.00;99.90
7216;DHT22;3649;48.798;9.798;2023-12-04T11:32:19;4.00;99.90
7216;DHT22;3649;48.798;9.798;2023-12-04T11:34:58;4.00;99.90
7216;DHT22;3649;48.798;9.798;2023-12-04T11:37:26;4.00;99.90
7216;DHT22;3649;48.798;9.798;2023-12-04T11:39:53;4.00;99.90
7216;DHT22;3649;48.798;9.798;2023-12-04T11:42:24;4.10;99.90
7216;DHT22;3649;48.798;9.798;2023-12-04T11:44:58;4.10;99.90
7216;DHT22;3649;48.798;9.798;2023-12-04T11:47:28;4.10;99.90
7216;DHT22;3649;48.798;9.798;2023-12-04T11:49:55;4.00;99.90
7216;DHT22;3649;48.798;9.798;2023-12-04T11:52:32;4.00;99.90
7216;DHT22;3649;48.798;9.798;2023-12-04T11:55:03;4.10;99.90
7216;DHT22;3649;48.798;9.798;2023-12-04T11:57:36;3.90;99.90
7216;DHT22;3649;48.798;9.798;2023-12-04T12:05:37;3.90;99.90
7216;DHT22;3649;48.798;9.798;2023-12-04T12:08:08;3.90;99.90
7216;DHT22;3649;48.798;9.798;2023-12-04T12:10:35;4.00;99.90
7216;DHT22;3649;48.798;9.798;2023-12-04T12:13:03;4.00;99.90
7216;DHT22;3649;48.798;9.798;2023-12-04T12:15:32;4.00;99.90
7216;DHT22;3649;48.798;9.798;2023-12-04T12:17:59;4.00;99.90
7216;DHT22;3649;48.798;9.798;2023-12-04T12:20:26;4.00;99.90
7216;DHT22;3649;48.798;9.798;2023-12-04T12:22:53;4.00;99.90
7216;DHT22;3649;48.798;9.798;2023-12-04T12:25:21;3.90;99.90
7216;DHT22;3649;48.798;9.798;2023-12-04T12:27:50;3.90;99.90
7216;DHT22;3649;48.798;9.798;2023-12-04T12:30:17;3.90;99.90
7216;DHT22;3649;48.798;9.798;2023-12-04T12:32:44;3.90;99.90
7216;DHT22;3649;48.798;9.798;2023-12-04T12:35:11;3.90;99.90
7216;DHT22;3649;48.798;9.798;2023-12-04T12:37:39;3.90;99.90
7216;DHT22;3649;48.798;9.798;2023-12-04T12:40:06;4.00;99.90
7216;DHT22;3649;48.798;9.798;2023-12-04T12:42:36;4.00;99.90
7216;DHT22;3649;48.798;9.798;2023-12-04T12:45:09;4.00;99.90
7216;DHT22;3649;48.798;9.798;2023-12-04T12:47:42;4.00;99.90
7216;DHT22;3649;48.798;9.798;2023-12-04T12:50:10;4.00;99.90
7216;DHT22;3649;48.798;9.798;2023-12-04T12:52:38;4.10;99.90
7216;DHT22;3649;48.798;9.798;2023-12-04T12:55:05;4.10;99.90
7216;DHT22;3649;48.798;9.798;2023-12-04T12:57:33;4.10;99.90
7216;DHT22;3649;48.798;9.798;2023-12-04T13:00:00;4.10;99.90
7216;DHT22;3649;48.798;9.798;2023-12-04T13:02:27;4.10;99.90
7216;DHT22;3649;48.798;9.798;2023-12-04T13:04:55;4.10;99.90
7216;DHT22;3649;48.798;9.798;2023-12-04T13:07:22;4.10;99.90
7216;DHT22;3649;48.798;9.798;2023-12-04T13:09:49;4.10;99.90
7216;DHT22;3649;48.798;9.798;2023-12-04T13:12:16;4.10;99.90
7216;DHT22;3649;48.798;9.798;2023-12-04T13:14:43;4.10;99.90
7216;DHT22;3649;48.798;9.798;2023-12-04T13:17:10;4.20;99.90
7216;DHT22;3649;48.798;9.798;2023-12-04T13:19:37;4.20;99.90
7216;DHT22;3649;48.798;9.798;2023-12-04T13:22:04;4.20;99.90
7216;DHT22;3649;48.798;9.798;2023-12-04T13:24:31;4.20;99.90
7216;DHT22;3649;48.798;9.798;2023-12-04T13:26:58;4.50;99.90
7216;DHT22;3649;48.798;9.798;2023-12-04T13:29:25;4.20;99.90
7216;DHT22;3649;48.798;9.798;2023-12-04T13:31:52;4.10;99.90
7216;DHT22;3649;48.798;9.798;2023-12-04T13:34:19;4.30;99.90
7216;DHT22;3649;48.798;9.798;2023-12-04T13:36:46;4.20;99.90
7216;DHT22;3649;48.798;9.798;2023-12-04T13:39:13;4.20;99.90
7216;DHT22;3649;48.798;9.798;2023-12-04T13:41:47;4.20;99.90
7216;DHT22;3649;48.798;9.798;2023-12-04T13:44:32;4.20;99.90
7216;DHT22;3649;48.798;9.798;2023-12-04T13:47:00;4.30;99.90
7216;DHT22;3649;48.798;9.798;2023-12-04T13:49:27;4.30;99.90
7216;DHT22;3649;48.798;9.798;2023-12-04T13:51:54;4.30;99.90
7216;DHT22;3649;48.798;9.798;2023-12-04T13:54:22;4.30;99.90
7216;DHT22;3649;48.798;9.798;2023-12-04T13:56:59;4.40;99.90
7216;DHT22;3649;48.798;9.798;2023-12-04T13:59:27;4.30;99.90
7216;DHT22;3649;48.798;9.798;2023-12-04T14:01:55;4.40;99.90
7216;DHT22;3649;48.798;9.798;2023-12-04T14:04:27;4.30;99.90
7216;DHT22;3649;48.798;9.798;2023-12-04T14:06:55;4.40;99.90
7216;DHT22;3649;48.798;9.798;2023-12-04T14:09:26;4.70;99.90
7216;DHT22;3649;48.798;9.798;2023-12-04T14:11:53;4.60;99.90
7216;DHT22;3649;48.798;9.798;2023-12-04T14:14:20;4.50;99.90
7216;DHT22;3649;48.798;9.798;2023-12-04T14:16:47;4.40;99.90
7216;DHT22;3649;48.798;9.798;2023-12-04T14:19:15;4.40;99.90
7216;DHT22;3649;48.798;9.798;2023-12-04T14:21:44;4.50;99.90
7216;DHT22;3649;48.798;9.798;2023-12-04T14:24:11;4.40;99.90
7216;DHT22;3649;48.798;9.798;2023-12-04T14:26:38;4.40;99.90
7216;DHT22;3649;48.798;9.798;2023-12-04T14:29:05;4.40;99.90
7216;DHT22;3649;48.798;9.798;2023-12-04T14:31:34;4.40;99.90
7216;DHT22;3649;48.798;9.798;2023-12-04T14:34:01;4.40;99.90
7216;DHT22;3649;48.798;9.798;2023-12-04T14:36:30;4.50;99.90
7216;DHT22;3649;48.798;9.798;2023-12-04T14:39:00;4.50;99.90
7216;DHT22;3649;48.798;9.798;2023-12-04T14:41:27;4.40;99.90
7216;DHT22;3649;48.798;9.798;2023-12-04T14:43:54;4.50;99.90
7216;DHT22;3649;48.798;9.798;2023-12-04T14:46:22;4.50;99.90
7216;DHT22;3649;48.798;9.798;2023-12-04T14:48:49;4.50;99.90
7216;DHT22;3649;48.798;9.798;2023-12-04T14:51:16;4.50;99.90
7216;DHT22;3649;48.798;9.798;2023-12-04T14:53:43;4.50;99.90
7216;DHT22;3649;48.798;9.798;2023-12-04T14:56:17;4.50;99.90
7216;DHT22;3649;48.798;9.798;2023-12-04T14:59:03;4.50;99.90
7216;DHT22;3649;48.798;9.798;2023-12-04T15:01:56;4.30;99.90
7216;DHT22;3649;48.798;9.798;2023-12-04T15:04:24;4.30;99.90
7216;DHT22;3649;48.798;9.798;2023-12-04T15:07:27;4.30;99.90
7216;DHT22;3649;48.798;9.798;2023-12-04T15:10:06;4.40;99.90
7216;DHT22;3649;48.798;9.798;2023-12-04T15:12:39;4.40;99.90
7216;DHT22;3649;48.798;9.798;2023-12-04T15:15:24;4.60;99.90
7216;DHT22;3649;48.798;9.798;2023-12-04T15:17:58;4.60;99.90
7216;DHT22;3649;48.798;9.798;2023-12-04T15:20:45;4.50;99.90
7216;DHT22;3649;48.798;9.798;2023-12-04T15:23:12;4.60;99.90
7216;DHT22;3649;48.798;9.798;2023-12-04T15:25:39;4.60;99.90
7216;DHT22;3649;48.798;9.798;2023-12-04T15:28:07;4.60;99.90
7216;DHT22;3649;48.798;9.798;2023-12-04T15:30:34;4.60;99.90
7216;DHT22;3649;48.798;9.798;2023-12-04T15:33:01;4.60;99.90
7216;DHT22;3649;48.798;9.798;2023-12-04T15:35:29;4.70;99.90
7216;DHT22;3649;48.798;9.798;2023-12-04T15:37:56;4.70;99.90
7216;DHT22;3649;48.798;9.798;2023-12-04T15:40:23;4.80;99.90
7216;DHT22;3649;48.798;9.798;2023-12-04T15:42:50;4.80;99.90
7216;DHT22;3649;48.798;9.798;2023-12-04T15:45:17;4.80;99.90
7216;DHT22;3649;48.798;9.798;2023-12-04T15:47:44;4.80;99.90
7216;DHT22;3649;48.798;9.798;2023-12-04T15:50:11;4.70;99.90
7216;DHT22;3649;48.798;9.798;2023-12-04T15:52:38;4.70;99.90
7216;DHT22;3649;48.798;9.798;2023-12-04T15:55:08;4.70;99.90
7216;DHT22;3649;48.798;9.798;2023-12-04T15:57:38;4.70;99.90
7216;DHT22;3649;48.798;9.798;2023-12-04T16:00:06;4.60;99.90
7216;DHT22;3649;48.798;9.798;2023-12-04T16:02:33;4.60;99.90
7216;DHT22;3649;48.798;9.798;2023-12-04T16:05:00;4.60;99.90
7216;DHT22;3649;48.798;9.798;2023-12-04T16:07:29;4.80;99.90
7216;DHT22;3649;48.798;9.798;2023-12-04T16:09:56;4.70;99.90
7216;DHT22;3649;48.798;9.798;2023-12-04T16:12:23;4.80;99.90
7216;DHT22;3649;48.798;9.798;2023-12-04T16:14:50;4.80;99.90
7216;DHT22;3649;48.798;9.798;2023-12-04T16:17:17;4.70;99.90
7216;DHT22;3649;48.798;9.798;2023-12-04T16:19:44;4.60;99.90
7216;DHT22;3649;48.798;9.798;2023-12-04T16:22:11;4.60;99.90
7216;DHT22;3649;48.798;9.798;2023-12-04T16:24:38;4.70;99.90
7216;DHT22;3649;48.798;9.798;2023-12-04T16:27:06;4.60;99.90
7216;DHT22;3649;48.798;9.798;2023-12-04T16:29:33;4.60;99.90
7216;DHT22;3649;48.798;9.798;2023-12-04T16:32:00;4.60;99.90
7216;DHT22;3649;48.798;9.798;2023-12-04T16:34:27;4.60;99.90